Search for airport 
image banner adimage banner adimage banner ad
image banner ad

17CA - Doctors Medical Center

Located in San Pablo, United States

ICAO - 17CA, IATA -

Data provided by Airmate  

General information

Coordinates: N37°47'53" W121°14'50"
Elevation is 23 feet MSL.
Magnetic variation is 16° East
View others Airports in California

Operational data

Special qualification required
Current time UTC:
Current local time:
Weather at : KSCK - Stockton Metropolitan ( 11 km )
METAR: KSCK 141055Z AUTO 31006KT 10SM CLR 17/15 A2998 RMK AO2 SLP150 T01720150
TAF: KSCK 141120Z 1412/1512 31008KT P6SM SKC FM142000 30014G22KT P6SM FEW250 FM150600 29010KT P6SM SKC
View NOTAMs / SUP AIP / TFR affecting this airport [VIEW]
Communications frequencies: [VIEW]

Runways:

Airport contact information

Address: San Pablo United States

Satellite view of 17CA